createdAt,value
2022-09-12T00:05:12.996Z,34.3
2022-09-12T00:10:53.885Z,34.3
2022-09-12T00:16:32.275Z,34.3
2022-09-12T00:22:10.775Z,34.3
2022-09-12T00:27:47.577Z,34.2
2022-09-12T00:33:09.201Z,34.2
2022-09-12T00:38:47.310Z,34.2
2022-09-12T00:44:24.695Z,34.1
2022-09-12T00:50:01.386Z,34.1
2022-09-12T00:55:39.443Z,34.1
2022-09-12T01:01:00.916Z,34.1
2022-09-12T01:06:38.197Z,34.1
2022-09-12T01:12:16.040Z,34.1
2022-09-12T01:17:53.391Z,34.1
2022-09-12T01:23:31.025Z,34.1
2022-09-12T01:29:08.845Z,34
2022-09-12T01:34:45.907Z,34
2022-09-12T01:40:22.478Z,33.9
2022-09-12T01:46:00.061Z,33.9
2022-09-12T01:51:37.603Z,33.9
2022-09-12T01:57:04.138Z,33.9
2022-09-12T02:02:42.403Z,33.9
2022-09-12T02:08:19.395Z,33.9
2022-09-12T02:13:56.538Z,33.8
2022-09-12T02:19:34.604Z,33.8
2022-09-12T02:25:33.168Z,33.8
2022-09-12T02:31:10.266Z,33.8
2022-09-12T02:36:47.744Z,33.8
2022-09-12T02:42:25.724Z,33.8
2022-09-12T02:48:02.843Z,33.8
2022-09-12T02:53:24.892Z,33.7
2022-09-12T02:59:02.117Z,33.7
2022-09-12T03:04:39.620Z,33.7
2022-09-12T03:10:17.054Z,33.6
2022-09-12T03:15:54.672Z,33.6
2022-09-12T03:21:15.901Z,33.6
2022-09-12T03:26:52.561Z,33.6
2022-09-12T03:32:30.169Z,33.6
2022-09-12T03:38:10.934Z,33.6
2022-09-12T03:43:48.306Z,33.6
2022-09-12T03:49:25.551Z,33.5
2022-09-12T03:55:01.995Z,33.5
2022-09-12T04:00:40.302Z,33.6
2022-09-12T04:06:18.561Z,33.4
2022-09-12T04:11:24.837Z,33.5
2022-09-12T04:17:03.402Z,33.4
2022-09-12T04:22:41.042Z,33.4
2022-09-12T04:28:18.780Z,33.5
2022-09-12T04:33:41.103Z,33.6
2022-09-12T04:39:18.581Z,33.6
2022-09-12T04:44:54.859Z,33.5
2022-09-12T04:50:36.081Z,33.4
2022-09-12T04:56:13.399Z,33.4
2022-09-12T05:01:50.350Z,33.4
2022-09-12T05:07:30.710Z,33.4
2022-09-12T05:13:38.405Z,33.3
2022-09-12T05:19:03.261Z,33.3
2022-09-12T05:24:41.564Z,33.3
2022-09-12T05:30:19.776Z,33.3
2022-09-12T05:35:56.106Z,33.2
2022-09-12T05:41:38.359Z,33.2
2022-09-12T05:47:16.724Z,33.1
2022-09-12T05:52:53.702Z,33.1
2022-09-12T05:58:31.126Z,33.1
2022-09-12T06:04:14.174Z,33.1
2022-09-12T06:09:52.183Z,33.1
2022-09-12T06:15:33.445Z,39.7
2022-09-12T06:21:15.608Z,39.8
2022-09-12T06:26:53.334Z,38
2022-09-12T06:32:34.923Z,36.9
2022-09-12T06:38:11.987Z,43.6
2022-09-12T06:43:54.251Z,40.7
2022-09-12T06:49:32.797Z,38.6
2022-09-12T06:55:10.975Z,37.3
2022-09-12T07:00:33.717Z,42.9
2022-09-12T07:06:11.731Z,44.5
2022-09-12T07:11:48.647Z,45.6
2022-09-12T07:17:26.542Z,45.5
2022-09-12T07:23:04.372Z,45.8
2022-09-12T07:28:42.499Z,45.9
2022-09-12T07:34:44.485Z,45.6
2022-09-12T07:40:06.658Z,45.4
2022-09-12T07:45:44.195Z,46.7
2022-09-12T07:51:21.696Z,47.2
2022-09-12T07:57:04.201Z,47.8
2022-09-12T08:03:06.460Z,48.6
2022-09-12T08:08:47.334Z,48.8
2022-09-12T08:14:28.835Z,49.8
2022-09-12T08:20:07.051Z,50.6
2022-09-12T08:25:33.893Z,51.4
2022-09-12T08:31:11.863Z,52.1
2022-09-12T08:36:49.868Z,52.5
2022-09-12T08:42:27.938Z,53.1
2022-09-12T08:47:54.436Z,53.6
2022-09-12T08:53:32.429Z,54.1
2022-09-12T08:59:10.257Z,54.1
2022-09-12T09:04:48.917Z,54.1
2022-09-12T09:10:26.739Z,54.1
2022-09-12T09:16:04.006Z,55
2022-09-12T09:21:30.817Z,55.5
2022-09-12T09:27:23.820Z,55.9
2022-09-12T09:33:07.336Z,56.4
2022-09-12T09:38:48.055Z,56.8
2022-09-12T09:44:10.985Z,57.3
2022-09-12T09:49:34.759Z,57.6
2022-09-12T09:54:42.055Z,56.6
2022-09-12T09:59:49.305Z,57.3
2022-09-12T10:05:15.996Z,51.8
2022-09-12T10:10:38.517Z,44.5
2022-09-12T10:16:17.448Z,44.3
2022-09-12T10:22:00.331Z,44.8
2022-09-12T10:27:42.548Z,46.1
2022-09-12T10:33:20.926Z,47.9
2022-09-12T10:38:42.905Z,48
2022-09-12T10:44:21.238Z,49.9
2022-09-12T10:50:03.315Z,51
2022-09-12T10:55:47.700Z,51.8
2022-09-12T11:01:29.481Z,52.9
2022-09-12T11:06:51.843Z,53.8
2022-09-12T11:12:33.473Z,54.4
2022-09-12T11:18:11.671Z,55.1
2022-09-12T11:23:54.330Z,55.9
2022-09-12T11:29:03.848Z,56.4
2022-09-12T11:34:31.936Z,56.8
2022-09-12T11:40:12.839Z,57.2
2022-09-12T11:45:50.469Z,57.5
2022-09-12T11:51:31.203Z,57.8
2022-09-12T11:57:08.683Z,58
2022-09-12T12:02:50.867Z,58.1
2022-09-12T12:08:18.145Z,58.3
2022-09-12T12:14:01.481Z,58.5
2022-09-12T12:19:26.910Z,58.6
2022-09-12T12:25:10.323Z,57.8
2022-09-12T12:30:51.749Z,57.2
2022-09-12T12:36:29.718Z,57.9
2022-09-12T12:42:14.866Z,58.1
2022-09-12T12:47:55.024Z,58.1
2022-09-12T12:53:32.617Z,57.7
2022-09-12T12:59:14.769Z,55.5
2022-09-12T13:04:59.230Z,55.4
2022-09-12T13:10:21.176Z,55.6
2022-09-12T13:15:58.332Z,55.7
2022-09-12T13:22:04.936Z,55.1
2022-09-12T13:27:42.506Z,54.9
2022-09-12T13:33:24.075Z,54.5
2022-09-12T13:39:01.545Z,53.7
2022-09-12T13:44:39.281Z,49.3
2022-09-12T13:50:16.827Z,50.1
2022-09-12T13:55:54.843Z,46.8
2022-09-12T14:01:32.253Z,44.6
2022-09-12T14:07:10.538Z,50.8
2022-09-12T14:12:49.438Z,47
2022-09-12T14:18:29.460Z,42.6
2022-09-12T14:24:11.449Z,44.1
2022-09-12T14:29:49.374Z,47.8
2022-09-12T14:35:26.677Z,42.9
2022-09-12T14:41:05.141Z,40.6
2022-09-12T14:46:27.119Z,39.1
2022-09-12T14:52:08.072Z,37.9
2022-09-12T14:57:46.008Z,37.3
2022-09-12T15:03:23.837Z,36.7
2022-09-12T15:09:02.835Z,35.6
2022-09-12T15:14:40.289Z,34.3
2022-09-12T15:20:04.361Z,33.6
2022-09-12T15:25:42.860Z,33.1
2022-09-12T15:31:21.136Z,32.6
2022-09-12T15:36:59.387Z,32.4
2022-09-12T15:42:41.204Z,32.2
2022-09-12T15:48:23.252Z,32.1
2022-09-12T15:53:50.627Z,32
2022-09-12T15:59:46.762Z,31.9
2022-09-12T16:05:14.827Z,31.7
2022-09-12T16:10:55.959Z,31.5
2022-09-12T16:16:17.896Z,31.4
2022-09-12T16:21:57.775Z,31.4
2022-09-12T16:27:35.576Z,31.4
2022-09-12T16:33:13.909Z,31.3
2022-09-12T16:38:51.792Z,31.3
2022-09-12T16:44:30.509Z,31.3
2022-09-12T16:50:13.899Z,31.3
2022-09-12T16:55:52.255Z,31.3
2022-09-12T17:01:32.960Z,31.3
2022-09-12T17:07:14.784Z,31.3
2022-09-12T17:12:39.887Z,31.3
2022-09-12T17:18:31.042Z,31.3
2022-09-12T17:23:58.804Z,31.3
2022-09-12T17:29:21.656Z,31.3
2022-09-12T17:34:59.279Z,31.3
2022-09-12T17:40:28.868Z,31.3
2022-09-12T17:46:24.476Z,31.3
2022-09-12T17:52:10.597Z,31.3
2022-09-12T17:57:34.403Z,31.3
2022-09-12T18:03:13.398Z,31.3
2022-09-12T18:08:51.751Z,31.3
2022-09-12T18:14:30.962Z,31.3
2022-09-12T18:19:54.824Z,31.3
2022-09-12T18:25:32.801Z,31.3
2022-09-12T18:31:41.598Z,31.3
2022-09-12T18:37:04.894Z,31.3
2022-09-12T18:42:30.706Z,31.3
2022-09-12T18:48:08.893Z,31.3
2022-09-12T18:53:49.209Z,31.3
2022-09-12T18:59:27.211Z,31.3
2022-09-12T19:05:05.159Z,31.2
2022-09-12T19:10:47.181Z,31.2
2022-09-12T19:16:10.270Z,31.2
2022-09-12T19:21:37.949Z,30.8
2022-09-12T19:27:00.617Z,30.6
2022-09-12T19:32:25.471Z,30.3
2022-09-12T19:38:08.733Z,29.8
2022-09-12T19:43:47.129Z,29.3
2022-09-12T19:49:25.358Z,28.9
2022-09-12T19:55:08.076Z,28.8
2022-09-12T20:00:51.534Z,28.6
2022-09-12T20:06:32.425Z,28.6
2022-09-12T20:12:09.982Z,28.6
2022-09-12T20:17:48.342Z,28.6
2022-09-12T20:23:29.258Z,28.5
2022-09-12T20:29:06.718Z,28.5
2022-09-12T20:34:45.472Z,28.6
2022-09-12T20:40:08.258Z,28.6
2022-09-12T20:45:45.863Z,28.6
2022-09-12T20:51:27.066Z,28.6
2022-09-12T20:57:04.723Z,28.6
2022-09-12T21:02:42.457Z,28.6
2022-09-12T21:08:21.329Z,28.6
2022-09-12T21:13:59.013Z,28.6
2022-09-12T21:19:37.520Z,28.6
2022-09-12T21:25:17.023Z,28.6
2022-09-12T21:31:01.664Z,28.6
2022-09-12T21:36:28.444Z,28.6
2022-09-12T21:42:06.741Z,28.6
2022-09-12T21:47:45.145Z,28.7
2022-09-12T21:53:23.023Z,28.7
2022-09-12T21:58:45.629Z,28.7
2022-09-12T22:04:07.602Z,28.7
2022-09-12T22:09:46.392Z,28.7
2022-09-12T22:15:52.861Z,28.7
2022-09-12T22:21:30.950Z,28.8
2022-09-12T22:27:07.278Z,28.8
2022-09-12T22:32:45.530Z,28.8
2022-09-12T22:38:26.559Z,28.8
2022-09-12T22:44:03.972Z,28.8
2022-09-12T22:49:46.407Z,28.8
2022-09-12T22:55:24.530Z,28.8
2022-09-12T23:00:46.214Z,28.8
2022-09-12T23:06:08.693Z,28.8
2022-09-12T23:11:32.768Z,28.8
2022-09-12T23:16:53.690Z,28.8
2022-09-12T23:22:00.178Z,28.8
2022-09-12T23:27:21.741Z,28.8
2022-09-12T23:32:59.310Z,28.8
2022-09-12T23:38:22.447Z,28.8
2022-09-12T23:43:44.890Z,28.8
2022-09-12T23:49:21.344Z,28.8
2022-09-12T23:54:45.409Z,28.8
